Time;durP1;ratioP1;P1;durP2;ratioP2;P2;SDS_P1;SDS_P2;PMS_P1;PMS_P2;Temp;Humidity;BMP_temperature;BMP_pressure;BME280_temperature;BME280_humidity;BME280_pressure;Samples;Min_cycle;Max_cycle;Signal;HPM_P1;HPM_P2
2022/02/18 00:02:07;;;;;;;11.03;3.05;;;;;;;4.60;78.75;98996.13;1716997;83;21082;-76
2022/02/18 00:04:34;;;;;;;14.55;4.45;;;;;;;4.67;78.71;99023.64;1717113;83;21070;-76
2022/02/18 00:07:01;;;;;;;23.32;6.70;;;;;;;4.69;78.89;99028.86;1717116;83;21770;-76
2022/02/18 00:09:27;;;;;;;12.37;3.60;;;;;;;4.73;79.01;99032.41;1719354;83;21075;-76
2022/02/18 00:11:54;;;;;;;8.60;3.62;;;;;;;4.76;79.03;99031.19;1720165;83;21173;-76
2022/02/18 00:14:20;;;;;;;6.40;3.42;;;;;;;4.79;78.78;99040.39;1720182;83;21529;-76
2022/02/18 00:16:47;;;;;;;4.55;1.65;;;;;;;4.70;78.39;99050.19;1720168;83;21078;-76
2022/02/18 00:19:14;;;;;;;4.05;1.70;;;;;;;4.60;78.27;99043.91;1720074;83;21756;-76
2022/02/18 00:21:40;;;;;;;2.52;1.10;;;;;;;4.51;78.18;99061.07;1720257;83;21008;-76
2022/02/18 00:24:07;;;;;;;3.15;1.00;;;;;;;4.44;78.43;99063.95;1720149;83;21643;-76
2022/02/18 00:26:34;;;;;;;3.58;1.57;;;;;;;4.41;78.56;99071.28;1720445;83;21615;-76
2022/02/18 00:29:00;;;;;;;2.00;1.00;;;;;;;4.39;78.61;99075.58;1720013;83;21098;-76
2022/02/18 00:31:27;;;;;;;3.62;1.40;;;;;;;4.37;78.73;99075.94;1720125;83;22584;-76
2022/02/18 00:33:54;;;;;;;5.97;3.25;;;;;;;4.39;78.78;99091.61;1720112;83;21078;-76
2022/02/18 00:36:20;;;;;;;10.35;5.78;;;;;;;4.37;78.72;99079.84;1720048;83;21055;-76
2022/02/18 00:38:47;;;;;;;8.53;4.03;;;;;;;4.34;78.71;99086.74;1719943;83;21070;-76
2022/02/18 00:41:14;;;;;;;6.78;3.87;;;;;;;4.31;78.65;99094.47;1720094;83;21070;-76
2022/02/18 00:43:41;;;;;;;4.97;3.58;;;;;;;4.24;78.63;99098.64;1720038;83;21813;-77
2022/02/18 00:46:08;;;;;;;2.95;1.90;;;;;;;4.20;78.69;99100.72;1720028;83;21581;-76
2022/02/18 00:48:34;;;;;;;3.45;2.25;;;;;;;4.10;78.49;99103.53;1720444;83;21070;-76
2022/02/18 00:51:01;;;;;;;5.42;2.70;;;;;;;3.96;78.46;99105.81;1720334;83;21646;-76
2022/02/18 00:53:28;;;;;;;3.62;1.80;;;;;;;3.84;78.51;99112.86;1720278;82;21137;-76
2022/02/18 00:55:54;;;;;;;2.60;1.70;;;;;;;3.75;78.81;99118.27;1719932;83;21809;-76
2022/02/18 00:58:23;;;;;;;4.35;2.12;;;;;;;3.82;79.26;99121.06;1720394;83;21097;-76
2022/02/18 01:00:52;;;;;;;5.15;3.20;;;;;;;3.88;79.41;99110.80;1720300;82;21082;-76
2022/02/18 01:03:19;;;;;;;2.98;2.00;;;;;;;3.89;79.29;99117.77;1719853;82;21031;-76
2022/02/18 01:05:47;;;;;;;2.60;1.47;;;;;;;3.88;79.43;99118.60;1720225;83;21563;-76
2022/02/18 01:08:14;;;;;;;2.60;1.10;;;;;;;3.91;79.48;99133.44;1720152;83;21781;-76
2022/02/18 01:10:41;;;;;;;4.22;0.85;;;;;;;3.90;79.47;99138.17;1720034;83;21066;-76
2022/02/18 01:13:07;;;;;;;2.35;1.22;;;;;;;3.92;79.54;99136.91;1720435;83;21121;-76
2022/02/18 01:15:34;;;;;;;2.12;1.27;;;;;;;3.93;79.62;99142.17;1720336;83;21199;-76
2022/02/18 01:18:01;;;;;;;4.42;1.85;;;;;;;3.96;79.76;99143.56;1720304;83;21412;-76
2022/02/18 01:20:27;;;;;;;3.90;2.42;;;;;;;4.03;79.92;99159.77;1720224;83;21764;-76
2022/02/18 01:22:54;;;;;;;2.30;1.50;;;;;;;4.09;79.93;99157.74;1720304;83;21000;-76
2022/02/18 01:25:20;;;;;;;2.22;1.00;;;;;;;4.13;79.77;99165.21;1720636;83;21070;-76
2022/02/18 01:27:47;;;;;;;4.20;2.22;;;;;;;4.08;79.46;99171.62;1720427;83;21628;-76
2022/02/18 01:30:14;;;;;;;1.10;0.70;;;;;;;4.03;79.47;99183.63;1720343;83;21599;-77
2022/02/18 01:32:40;;;;;;;3.25;0.70;;;;;;;4.00;79.49;99193.55;1720232;83;21783;-76
2022/02/18 01:35:08;;;;;;;0.88;0.60;;;;;;;3.99;79.56;99199.59;1720302;82;21066;-76
2022/02/18 01:37:35;;;;;;;1.65;0.82;;;;;;;3.99;79.64;99198.72;1720348;83;21137;-76
2022/02/18 01:40:01;;;;;;;1.85;1.30;;;;;;;3.95;79.46;99194.27;1720163;83;21662;-76
2022/02/18 01:42:28;;;;;;;2.92;1.10;;;;;;;3.85;79.27;99194.45;1720348;83;21054;-76
2022/02/18 01:44:54;;;;;;;3.92;1.60;;;;;;;3.76;79.37;99209.39;1720093;83;22602;-76
2022/02/18 01:47:23;;;;;;;4.33;1.20;;;;;;;3.75;79.50;99219.33;1720275;83;21571;-76
2022/02/18 01:49:53;;;;;;;4.37;1.25;;;;;;;3.68;79.34;99210.48;1695573;83;21161;-75
2022/02/18 01:52:20;;;;;;;5.37;1.30;;;;;;;3.61;79.27;99224.59;1720392;83;21129;-76
2022/02/18 01:54:47;;;;;;;5.53;1.80;;;;;;;3.52;79.33;99214.79;1720378;82;21073;-76
2022/02/18 01:57:14;;;;;;;6.40;1.40;;;;;;;3.46;79.44;99210.72;1719996;83;22547;-76
2022/02/18 01:59:41;;;;;;;4.17;1.30;;;;;;;3.43;79.59;99215.83;1695188;83;21082;-76
2022/02/18 02:02:07;;;;;;;6.05;1.47;;;;;;;3.43;79.68;99203.69;1720365;83;21074;-76
2022/02/18 02:04:34;;;;;;;4.28;1.27;;;;;;;3.40;79.68;99223.13;1720627;83;21024;-75
2022/02/18 02:07:04;;;;;;;3.47;1.45;;;;;;;3.38;79.69;99232.61;1720411;83;21058;-76
2022/02/18 02:09:30;;;;;;;6.08;1.30;;;;;;;3.34;79.77;99232.46;1720259;83;22856;-76
2022/02/18 02:11:57;;;;;;;5.12;1.62;;;;;;;3.33;79.85;99238.52;1720081;82;21652;-76
2022/02/18 02:14:24;;;;;;;3.33;1.20;;;;;;;3.28;79.82;99243.17;1720488;83;21066;-76
2022/02/18 02:16:51;;;;;;;2.87;0.93;;;;;;;3.26;79.85;99244.81;1720414;83;21035;-76
2022/02/18 02:19:17;;;;;;;3.58;1.02;;;;;;;3.24;79.92;99252.98;1720635;83;21074;-76
2022/02/18 02:21:53;;;;;;;3.92;1.20;;;;;;;3.18;79.84;99239.81;1720434;83;21758;-76
2022/02/18 02:24:19;;;;;;;9.80;1.70;;;;;;;3.27;79.88;99266.52;1720290;83;21027;-76
2022/02/18 02:26:46;;;;;;;5.87;1.30;;;;;;;3.27;79.86;99271.72;1720731;83;21050;-76
2022/02/18 02:29:13;;;;;;;6.78;0.98;;;;;;;3.25;79.74;99274.27;1720484;83;21086;-76
2022/02/18 02:31:40;;;;;;;7.80;1.37;;;;;;;3.24;79.66;99270.31;1720255;83;21109;-76
2022/02/18 02:34:07;;;;;;;5.22;1.27;;;;;;;3.25;79.60;99282.50;1720187;83;21847;-76
2022/02/18 02:36:33;;;;;;;9.23;1.30;;;;;;;3.27;79.57;99270.42;1720529;83;21532;-76
2022/02/18 02:39:00;;;;;;;6.50;1.20;;;;;;;3.28;79.41;99289.98;1720339;83;21011;-76
2022/02/18 02:41:27;;;;;;;3.65;1.00;;;;;;;3.22;79.30;99273.30;1720452;83;21641;-76
2022/02/18 02:43:53;;;;;;;5.92;1.27;;;;;;;3.26;79.24;99297.25;1720234;83;21062;-76
2022/02/18 02:46:20;;;;;;;5.05;1.22;;;;;;;3.24;79.19;99308.89;1720555;82;21752;-76
2022/02/18 02:48:46;;;;;;;3.45;0.80;;;;;;;3.21;79.22;99322.22;1720401;83;21011;-76
2022/02/18 02:51:13;;;;;;;5.50;1.20;;;;;;;3.16;79.40;99312.98;1720579;83;21066;-76
2022/02/18 02:53:41;;;;;;;4.65;1.12;;;;;;;3.21;79.75;99319.22;1720516;82;21121;-76
2022/02/18 02:56:08;;;;;;;4.65;1.37;;;;;;;3.20;79.74;99316.14;1720368;83;21067;-76
2022/02/18 02:58:35;;;;;;;5.03;1.07;;;;;;;3.30;79.69;99335.12;1720453;83;22359;-76
2022/02/18 03:01:02;;;;;;;2.75;1.20;;;;;;;3.29;79.69;99341.14;1720167;82;21560;-76
2022/02/18 03:03:28;;;;;;;5.87;1.07;;;;;;;3.33;79.99;99346.02;1720308;83;21113;-77
2022/02/18 03:05:55;;;;;;;4.08;1.00;;;;;;;3.36;79.71;99368.23;1720265;82;21339;-76
2022/02/18 03:08:22;;;;;;;3.33;1.20;;;;;;;3.38;79.65;99364.36;1720490;83;21062;-76
2022/02/18 03:11:33;;;;;;;8.68;1.35;;;;;;;3.37;79.54;99367.81;1717186;83;22644;-76
2022/02/18 03:13:17;;;;;;;1.95;0.80;;;;;;;3.33;79.53;99378.53;1689260;83;21109;-76
2022/02/18 03:15:43;;;;;;;3.67;1.20;;;;;;;3.35;79.66;99378.16;1716887;83;21051;-76
2022/02/18 03:18:10;;;;;;;4.87;1.35;;;;;;;3.38;79.76;99389.06;1716818;83;21063;-76
2022/02/18 03:20:37;;;;;;;5.53;1.00;;;;;;;3.42;79.91;99392.26;1716791;83;21125;-76
2022/02/18 03:23:03;;;;;;;6.22;1.20;;;;;;;3.47;80.06;99391.95;1716691;83;21764;-76
2022/02/18 03:25:30;;;;;;;2.87;1.40;;;;;;;3.53;80.19;99392.56;1716611;83;21066;-76
2022/02/18 03:27:56;;;;;;;4.28;0.93;;;;;;;3.58;80.15;99384.50;1716678;83;21608;-76
2022/02/18 03:30:23;;;;;;;4.05;1.02;;;;;;;3.56;79.97;99390.08;1716945;83;21332;-76
2022/02/18 03:32:50;;;;;;;3.98;1.10;;;;;;;3.52;79.92;99385.19;1716862;83;21066;-76
2022/02/18 03:35:16;;;;;;;5.50;1.70;;;;;;;3.47;79.87;99388.05;1716896;83;22594;-76
2022/02/18 03:37:43;;;;;;;3.77;1.25;;;;;;;3.50;80.19;99392.94;1716857;83;21547;-76
2022/02/18 03:40:11;;;;;;;5.45;1.40;;;;;;;3.57;80.25;99381.45;1716719;82;21619;-77
2022/02/18 03:42:37;;;;;;;5.75;1.50;;;;;;;3.58;80.10;99384.07;1716847;83;21377;-76
2022/02/18 03:45:06;;;;;;;5.12;1.20;;;;;;;3.51;79.89;99393.84;1717141;83;21082;-77
2022/02/18 03:47:33;;;;;;;6.78;1.50;;;;;;;3.43;79.89;99396.18;1717215;83;21760;-77
2022/02/18 03:49:59;;;;;;;7.15;1.52;;;;;;;3.41;80.08;99403.05;1716979;83;21624;-77
2022/02/18 03:52:26;;;;;;;6.17;2.02;;;;;;;3.46;80.27;99401.92;1717368;83;21038;-77
2022/02/18 03:54:53;;;;;;;7.83;1.60;;;;;;;3.53;80.37;99397.38;1716989;83;21259;-76
2022/02/18 03:57:20;;;;;;;13.18;1.90;;;;;;;3.58;80.35;99407.48;1717111;83;21074;-77
2022/02/18 03:59:46;;;;;;;5.20;1.50;;;;;;;3.59;80.29;99411.88;1717090;83;21750;-77
2022/02/18 04:02:13;;;;;;;8.30;2.02;;;;;;;3.63;80.43;99417.62;1716925;83;21138;-77
2022/02/18 04:04:40;;;;;;;9.53;2.67;;;;;;;3.72;80.58;99427.84;1717240;83;21121;-76
2022/02/18 04:07:07;;;;;;;15.83;5.47;;;;;;;3.82;80.61;99425.59;1716926;83;21090;-77
2022/02/18 04:09:34;;;;;;;15.45;5.40;;;;;;;3.91;80.64;99438.44;1717682;83;21011;-77
2022/02/18 04:12:00;;;;;;;13.32;2.60;;;;;;;3.99;80.65;99451.25;1720321;83;21604;-77
2022/02/18 04:14:27;;;;;;;8.23;2.05;;;;;;;4.05;80.66;99448.44;1720398;83;21588;-77
2022/02/18 04:16:53;;;;;;;12.73;2.33;;;;;;;4.09;80.61;99450.29;1720407;83;20995;-77
2022/02/18 04:19:20;;;;;;;11.33;2.33;;;;;;;4.15;80.56;99457.80;1720419;82;21507;-76
2022/02/18 04:21:47;;;;;;;13.38;2.37;;;;;;;4.19;80.52;99454.47;1720301;83;21113;-77
2022/02/18 04:24:13;;;;;;;8.38;2.00;;;;;;;4.19;80.50;99472.70;1720590;83;21760;-77
2022/02/18 04:26:40;;;;;;;11.63;2.15;;;;;;;4.22;80.53;99477.98;1720665;83;21763;-76
2022/02/18 04:29:07;;;;;;;12.73;2.67;;;;;;;4.23;80.48;99489.75;1720538;83;21106;-76
2022/02/18 04:31:34;;;;;;;9.75;2.12;;;;;;;4.24;80.40;99482.81;1720474;83;21146;-77
2022/02/18 04:34:00;;;;;;;14.50;2.72;;;;;;;4.25;80.53;99476.78;1719949;82;21047;-77
2022/02/18 04:36:27;;;;;;;9.83;2.62;;;;;;;4.24;80.53;99493.23;1720527;83;21693;-77
2022/02/18 04:38:54;;;;;;;16.75;3.02;;;;;;;4.23;80.52;99487.58;1720393;83;21078;-76
2022/02/18 04:41:24;;;;;;;10.88;2.67;;;;;;;4.23;80.60;99484.55;1720556;83;21074;-76
2022/02/18 04:43:51;;;;;;;15.58;2.87;;;;;;;4.23;80.58;99483.67;1720433;83;21149;-76
2022/02/18 04:46:17;;;;;;;10.32;2.35;;;;;;;4.23;80.59;99490.18;1720474;83;21119;-77
2022/02/18 04:48:44;;;;;;;12.58;2.58;;;;;;;4.26;80.69;99486.34;1720353;83;21760;-77
2022/02/18 04:51:10;;;;;;;7.90;2.15;;;;;;;4.24;80.57;99478.91;1720251;83;21158;-77
2022/02/18 04:53:37;;;;;;;12.60;1.98;;;;;;;4.20;80.52;99487.05;1720574;83;21062;-77
2022/02/18 04:56:08;;;;;;;11.60;2.20;;;;;;;4.20;80.61;99492.68;1720404;83;21031;-76
2022/02/18 04:58:34;;;;;;;9.20;2.50;;;;;;;4.16;80.50;99493.00;1720533;83;21011;-77
2022/02/18 05:01:01;;;;;;;10.03;2.60;;;;;;;4.10;80.41;99490.22;1720485;83;22666;-77
2022/02/18 05:03:28;;;;;;;7.47;2.72;;;;;;;4.02;80.33;99493.02;1720384;83;21531;-77
2022/02/18 05:05:55;;;;;;;7.70;2.10;;;;;;;3.95;80.25;99492.36;1720634;83;21254;-77
2022/02/18 05:08:21;;;;;;;6.33;1.72;;;;;;;3.83;80.25;99491.14;1720719;83;21050;-77
2022/02/18 05:10:48;;;;;;;6.85;2.05;;;;;;;3.79;80.34;99499.69;1720205;83;21077;-77
2022/02/18 05:13:15;;;;;;;7.15;1.95;;;;;;;3.80;80.58;99494.94;1720400;82;21971;-77
2022/02/18 05:15:41;;;;;;;8.43;2.72;;;;;;;3.84;80.70;99494.61;1720244;83;21297;-77
2022/02/18 05:18:08;;;;;;;11.40;2.30;;;;;;;3.85;80.67;99495.09;1720029;83;21122;-76
2022/02/18 05:20:35;;;;;;;11.97;2.50;;;;;;;3.84;80.70;99493.31;1720374;83;21082;-76
2022/02/18 05:23:01;;;;;;;9.65;2.37;;;;;;;3.86;80.73;99499.45;1720482;83;21273;-76
2022/02/18 05:25:28;;;;;;;8.60;2.08;;;;;;;3.86;80.71;99492.94;1720581;83;21767;-77
2022/02/18 05:27:55;;;;;;;7.80;1.80;;;;;;;3.81;80.60;99495.41;1720433;83;21081;-77
2022/02/18 05:30:21;;;;;;;5.62;1.85;;;;;;;3.78;80.70;99502.23;1720453;83;21082;-77
2022/02/18 05:32:48;;;;;;;9.05;2.42;;;;;;;3.81;80.89;99497.11;1720116;82;21155;-76
2022/02/18 05:35:15;;;;;;;11.18;2.47;;;;;;;3.79;80.76;99498.39;1720352;82;21075;-77
2022/02/18 05:37:41;;;;;;;10.15;2.40;;;;;;;3.73;80.66;99499.89;1720438;83;21793;-77
2022/02/18 05:40:09;;;;;;;9.65;2.15;;;;;;;3.67;80.67;99504.48;1720237;83;21169;-77
2022/02/18 05:42:36;;;;;;;8.33;1.92;;;;;;;3.65;80.85;99510.06;1720624;82;21501;-76
2022/02/18 05:45:03;;;;;;;7.08;2.08;;;;;;;3.68;81.03;99510.17;1720323;83;21070;-77
2022/02/18 05:47:39;;;;;;;11.05;3.40;;;;;;;3.71;81.05;99518.06;1720277;82;21067;-77
2022/02/18 05:50:04;;;;;;;6.53;2.42;;;;;;;3.75;81.15;99522.52;1718952;83;21969;-77
2022/02/18 05:52:31;;;;;;;9.08;2.17;;;;;;;3.78;81.11;99517.86;1720179;83;21742;-76
2022/02/18 05:54:58;;;;;;;10.63;2.27;;;;;;;3.73;80.76;99523.32;1720258;82;21078;-76
2022/02/18 05:57:24;;;;;;;10.98;2.45;;;;;;;3.66;80.78;99514.02;1720674;83;21082;-77
2022/02/18 05:59:51;;;;;;;7.95;2.27;;;;;;;3.66;80.97;99534.84;1720987;83;21070;-77
2022/02/18 06:02:18;;;;;;;7.37;2.20;;;;;;;3.70;81.09;99540.61;1720896;82;21716;-77
2022/02/18 06:04:44;;;;;;;7.70;2.50;;;;;;;3.76;81.18;99537.32;1720937;83;21059;-77
2022/02/18 06:07:11;;;;;;;10.05;2.47;;;;;;;3.83;81.19;99543.59;1720683;83;21062;-76
2022/02/18 06:09:38;;;;;;;7.50;2.10;;;;;;;3.87;81.19;99538.55;1720686;83;21657;-77
2022/02/18 06:12:05;;;;;;;9.03;2.25;;;;;;;3.93;81.09;99543.50;1720039;83;21066;-77
2022/02/18 06:14:32;;;;;;;11.78;2.45;;;;;;;3.97;80.96;99537.13;1720210;82;21763;-76
2022/02/18 06:16:59;;;;;;;6.15;2.12;;;;;;;3.99;80.83;99538.48;1720247;83;21074;-77
2022/02/18 06:19:25;;;;;;;14.23;3.08;;;;;;;4.02;80.71;99539.89;1720314;83;21085;-77
2022/02/18 06:21:52;;;;;;;15.53;3.72;;;;;;;4.07;80.72;99548.31;1720406;83;21143;-77
2022/02/18 06:24:19;;;;;;;12.82;3.02;;;;;;;4.11;80.60;99553.20;1720345;83;21548;-77
2022/02/18 06:26:46;;;;;;;12.65;2.75;;;;;;;4.15;80.51;99561.57;1720238;83;22542;-76
2022/02/18 06:29:13;;;;;;;14.15;3.50;;;;;;;4.22;80.31;99547.00;1720271;83;21401;-76
2022/02/18 06:31:39;;;;;;;12.30;2.47;;;;;;;4.26;80.20;99560.19;1720748;83;21031;-76
2022/02/18 06:34:06;;;;;;;11.12;2.70;;;;;;;4.32;80.17;99554.28;1720141;83;21184;-77
2022/02/18 06:36:32;;;;;;;11.88;2.87;;;;;;;4.36;80.08;99552.23;1720498;83;21078;-77
2022/02/18 06:38:59;;;;;;;12.70;3.27;;;;;;;4.41;80.01;99567.59;1720165;83;22508;-76
2022/02/18 06:41:29;;;;;;;17.45;3.15;;;;;;;4.48;79.93;99568.22;1720113;82;21039;-77
2022/02/18 06:43:54;;;;;;;11.10;2.65;;;;;;;4.53;79.84;99568.80;1719518;83;21083;-77
2022/02/18 06:46:21;;;;;;;10.98;2.58;;;;;;;4.58;79.71;99567.20;1719725;83;21080;-77
2022/02/18 06:48:47;;;;;;;13.20;3.00;;;;;;;4.65;79.66;99580.88;1720538;83;21031;-77
2022/02/18 06:51:14;;;;;;;13.88;3.65;;;;;;;4.73;79.60;99592.44;1720531;83;21739;-77
2022/02/18 06:53:41;;;;;;;11.50;3.42;;;;;;;4.83;79.53;99590.98;1720417;83;21035;-78
2022/02/18 06:56:08;;;;;;;14.45;3.72;;;;;;;4.89;79.36;99587.67;1720410;82;21628;-79
2022/02/18 06:58:35;;;;;;;16.07;3.62;;;;;;;4.93;79.28;99597.34;1720514;83;21074;-79
2022/02/18 07:01:02;;;;;;;14.20;3.58;;;;;;;4.96;79.20;99589.19;1720227;83;21077;-78
2022/02/18 07:03:29;;;;;;;11.57;3.12;;;;;;;5.00;79.05;99594.08;1720295;83;22995;-78
2022/02/18 07:05:57;;;;;;;13.20;3.70;;;;;;;5.03;78.94;99594.14;1720352;83;21050;-78
2022/02/18 07:08:23;;;;;;;11.48;2.40;;;;;;;5.08;78.87;99609.94;1720319;82;21137;-79
2022/02/18 07:10:50;;;;;;;14.95;3.83;;;;;;;5.11;78.67;99608.73;1718705;83;21554;-78
2022/02/18 07:13:19;;;;;;;19.10;4.00;;;;;;;5.14;78.59;99613.59;1715566;83;21141;-77
2022/02/18 07:15:45;;;;;;;14.33;3.52;;;;;;;5.15;78.33;99626.23;1715195;83;22643;-75
2022/02/18 07:18:12;;;;;;;12.80;3.17;;;;;;;5.15;78.25;99621.89;1715260;83;21047;-76
2022/02/18 07:20:38;;;;;;;14.55;3.20;;;;;;;5.15;78.15;99624.93;1715371;83;21509;-76
2022/02/18 07:23:07;;;;;;;16.65;3.83;;;;;;;5.18;78.02;99620.69;1715350;83;21074;-76
2022/02/18 07:25:34;;;;;;;14.18;3.40;;;;;;;5.22;77.67;99616.45;1715408;83;21078;-75
2022/02/18 07:28:01;;;;;;;16.70;4.00;;;;;;;5.26;77.52;99612.65;1715214;83;21768;-76
2022/02/18 07:30:27;;;;;;;15.25;3.47;;;;;;;5.33;77.40;99619.33;1715196;83;21070;-76
2022/02/18 07:32:54;;;;;;;15.48;3.80;;;;;;;5.37;77.17;99619.48;1715404;83;21553;-73
2022/02/18 07:35:21;;;;;;;18.82;3.52;;;;;;;5.43;77.11;99621.38;1715382;83;21044;-74
2022/02/18 07:37:49;;;;;;;14.60;3.83;;;;;;;5.47;76.67;99614.08;1715375;83;21051;-75
2022/02/18 07:40:16;;;;;;;19.20;4.00;;;;;;;5.51;76.66;99624.19;1715299;83;21782;-75
2022/02/18 07:42:43;;;;;;;17.55;4.65;;;;;;;5.59;76.71;99633.09;1690696;83;21083;-75
2022/02/18 07:45:11;;;;;;;28.90;5.12;;;;;;;5.66;76.46;99627.20;1715504;83;21172;-75
2022/02/18 07:47:38;;;;;;;16.30;3.98;;;;;;;5.61;75.93;99630.10;1715406;83;21537;-75
2022/02/18 07:50:06;;;;;;;19.52;4.72;;;;;;;5.47;75.72;99633.66;1715288;83;21129;-75
2022/02/18 07:52:32;;;;;;;16.73;4.37;;;;;;;5.38;75.71;99630.79;1715453;83;21769;-75
2022/02/18 07:54:59;;;;;;;15.68;4.53;;;;;;;5.31;75.67;99638.88;1715509;83;21000;-75
2022/02/18 07:57:26;;;;;;;12.68;3.45;;;;;;;5.29;75.67;99655.31;1715716;83;21142;-74
2022/02/18 07:59:52;;;;;;;12.07;4.17;;;;;;;5.29;75.70;99656.63;1715492;83;21572;-74
2022/02/18 08:02:19;;;;;;;17.35;4.35;;;;;;;5.40;76.04;99656.08;1715307;83;21086;-74
2022/02/18 08:04:46;;;;;;;20.32;3.95;;;;;;;5.59;75.77;99654.89;1714969;83;21829;-75
2022/02/18 08:07:12;;;;;;;17.57;4.30;;;;;;;5.75;75.67;99669.66;1715120;83;21070;-75
2022/02/18 08:09:39;;;;;;;14.87;4.05;;;;;;;5.80;75.15;99666.33;1715353;83;21188;-76
2022/02/18 08:12:06;;;;;;;16.27;3.62;;;;;;;5.80;74.92;99666.72;1714830;83;21251;-76
2022/02/18 08:14:33;;;;;;;19.92;4.83;;;;;;;5.78;74.62;99673.23;1715371;83;21563;-76
2022/02/18 08:17:00;;;;;;;25.27;4.80;;;;;;;5.75;74.55;99692.73;1717237;83;21315;-76
2022/02/18 08:19:27;;;;;;;18.70;4.33;;;;;;;5.71;74.48;99669.12;1722208;83;21489;-76
2022/02/18 08:21:56;;;;;;;25.62;5.15;;;;;;;5.68;74.41;99680.34;1722108;83;21044;-76
2022/02/18 08:24:22;;;;;;;15.75;4.78;;;;;;;5.65;74.28;99672.44;1722029;83;21363;-74
2022/02/18 08:26:50;;;;;;;24.23;5.10;;;;;;;5.62;74.18;99670.61;1722403;83;21525;-75
2022/02/18 08:29:17;;;;;;;16.97;4.97;;;;;;;5.61;74.13;99677.09;1722176;83;22585;-75
2022/02/18 08:31:44;;;;;;;20.32;4.17;;;;;;;5.61;74.10;99672.78;1719068;83;21600;-75
2022/02/18 08:34:11;;;;;;;18.80;5.05;;;;;;;5.61;74.20;99678.40;1722056;83;21398;-74
2022/02/18 08:36:38;;;;;;;20.43;3.85;;;;;;;5.62;73.93;99685.41;1722219;83;21147;-75
2022/02/18 08:39:06;;;;;;;21.87;4.95;;;;;;;5.62;73.89;99695.41;1722222;83;21085;-75
2022/02/18 08:41:35;;;;;;;22.10;6.03;;;;;;;5.63;74.01;99695.89;1722321;83;21829;-75
2022/02/18 08:44:04;;;;;;;22.60;4.35;;;;;;;5.67;73.83;99692.95;1722308;83;21054;-76
2022/02/18 08:46:31;;;;;;;23.00;3.67;;;;;;;5.67;73.55;99695.95;1722028;83;21074;-76
2022/02/18 08:48:58;;;;;;;19.60;4.28;;;;;;;5.68;73.50;99710.80;1722118;83;21085;-76
2022/02/18 08:51:26;;;;;;;21.27;5.00;;;;;;;5.71;73.66;99714.38;1721921;83;22037;-76
2022/02/18 08:53:53;;;;;;;17.60;5.03;;;;;;;5.74;73.44;99712.26;1722250;83;22725;-76
2022/02/18 08:56:20;;;;;;;28.07;4.95;;;;;;;5.73;73.24;99725.75;1722097;83;21102;-75
2022/02/18 08:58:47;;;;;;;13.65;5.08;;;;;;;5.73;73.12;99725.75;1722232;83;21066;-74
2022/02/18 09:01:15;;;;;;;14.50;4.35;;;;;;;5.79;73.47;99723.72;1721901;83;21122;-75
2022/02/18 09:03:42;;;;;;;18.05;5.00;;;;;;;5.94;73.31;99731.97;1722430;83;21087;-75
2022/02/18 09:06:09;;;;;;;23.12;5.03;;;;;;;6.01;73.22;99724.80;1722352;83;21810;-75
2022/02/18 09:08:36;;;;;;;25.20;4.58;;;;;;;6.02;72.78;99737.44;1722542;83;21580;-74
2022/02/18 09:11:04;;;;;;;26.57;5.30;;;;;;;5.99;72.63;99734.77;1722435;83;21077;-74
2022/02/18 09:13:31;;;;;;;20.02;4.80;;;;;;;5.98;72.51;99727.75;1722255;83;21011;-75
2022/02/18 09:15:58;;;;;;;18.70;5.05;;;;;;;5.99;72.48;99738.25;1722468;83;21133;-74
2022/02/18 09:18:25;;;;;;;26.62;5.03;;;;;;;6.03;72.26;99749.23;1722834;83;21774;-75
2022/02/18 09:20:52;;;;;;;22.87;4.60;;;;;;;6.13;72.68;99744.27;1722875;83;22383;-75
2022/02/18 09:23:19;;;;;;;20.00;4.28;;;;;;;6.28;72.58;99747.70;1722683;82;21118;-75
2022/02/18 09:25:46;;;;;;;18.17;4.28;;;;;;;6.40;72.72;99755.45;1722682;83;21517;-75
2022/02/18 09:28:13;;;;;;;18.10;5.05;;;;;;;6.57;72.46;99757.61;1722655;83;21133;-74
2022/02/18 09:30:43;;;;;;;19.23;4.05;;;;;;;6.69;72.26;99755.28;1722541;83;21790;-74
2022/02/18 09:33:14;;;;;;;19.95;4.55;;;;;;;6.81;71.62;99761.23;1722664;83;21082;-75
2022/02/18 09:35:42;;;;;;;18.60;4.60;;;;;;;6.83;71.47;99768.69;1722509;83;21063;-75
2022/02/18 09:38:10;;;;;;;17.20;4.87;;;;;;;6.83;71.16;99756.91;1722773;83;21063;-75
2022/02/18 09:40:37;;;;;;;21.57;4.67;;;;;;;6.75;70.95;99762.39;1722522;83;21062;-75
2022/02/18 09:43:04;;;;;;;18.77;3.58;;;;;;;6.65;70.93;99758.67;1722335;83;21672;-75
2022/02/18 09:45:31;;;;;;;15.88;3.58;;;;;;;6.53;70.72;99767.50;1722200;83;21054;-74
2022/02/18 09:47:58;;;;;;;16.02;4.03;;;;;;;6.45;70.84;99783.43;1722477;83;21348;-75
2022/02/18 09:50:25;;;;;;;12.25;3.37;;;;;;;6.39;70.82;99781.11;1722307;83;21922;-75
2022/02/18 09:52:52;;;;;;;19.52;3.90;;;;;;;6.39;70.87;99790.69;1722484;82;21596;-75
2022/02/18 09:55:18;;;;;;;22.35;3.80;;;;;;;6.40;70.77;99785.51;1722306;83;22717;-75
2022/02/18 09:57:46;;;;;;;21.75;4.08;;;;;;;6.39;70.70;99775.88;1722116;83;21114;-75
2022/02/18 10:00:14;;;;;;;25.35;4.58;;;;;;;6.40;70.77;99784.59;1722386;83;21125;-75
2022/02/18 10:02:41;;;;;;;18.52;4.80;;;;;;;6.45;70.82;99784.73;1722429;83;21070;-81
2022/02/18 10:05:08;;;;;;;20.30;4.70;;;;;;;6.56;70.89;99787.20;1722803;83;21702;-81
2022/02/18 10:07:36;;;;;;;19.98;5.17;;;;;;;6.59;70.70;99787.30;1722880;83;21756;-81
2022/02/18 10:10:16;;;;;;;21.85;5.67;;;;;;;6.59;70.65;99790.78;1719560;83;21166;-74
2022/02/18 10:12:43;;;;;;;19.82;5.67;;;;;;;6.59;70.61;99788.17;1690563;83;21114;-76
2022/02/18 10:15:10;;;;;;;13.62;3.87;;;;;;;6.61;70.74;99793.44;1716707;83;21007;-76
2022/02/18 10:17:42;;;;;;;18.48;4.72;;;;;;;6.65;70.66;99797.91;1717037;83;21599;-76
2022/02/18 10:20:21;;;;;;;18.23;4.30;;;;;;;6.67;70.41;99780.95;1716911;83;22657;-76
2022/02/18 10:23:07;;;;;;;13.18;4.60;;;;;;;6.66;70.36;99787.88;1716954;83;21051;-76
2022/02/18 10:25:36;;;;;;;18.32;3.90;;;;;;;6.61;70.16;99795.63;1716875;83;21579;-76
2022/02/18 10:28:04;;;;;;;18.05;4.10;;;;;;;6.61;70.17;99796.06;1716972;83;21102;-76
2022/02/18 10:30:31;;;;;;;26.25;4.78;;;;;;;6.57;69.97;99793.78;1716906;83;21016;-75
2022/02/18 10:33:00;;;;;;;20.37;4.65;;;;;;;6.57;70.00;99805.55;1716772;83;21801;-76
2022/02/18 10:35:33;;;;;;;20.92;4.22;;;;;;;6.69;70.18;99801.48;1716210;83;21074;-76
2022/02/18 10:37:59;;;;;;;24.43;5.58;;;;;;;6.79;70.11;99800.84;1687710;83;21125;-76
2022/02/18 10:40:26;;;;;;;15.75;4.10;;;;;;;6.94;70.16;99799.04;1717035;83;21575;-75
2022/02/18 10:42:54;;;;;;;20.97;4.78;;;;;;;7.15;70.28;99803.49;1717387;83;21050;-76
2022/02/18 10:45:24;;;;;;;20.60;5.17;;;;;;;7.43;70.26;99819.81;1712177;83;21722;-76
2022/02/18 10:48:09;;;;;;;19.40;4.75;;;;;;;7.66;69.81;99803.72;1717018;82;21082;-76
2022/02/18 10:50:36;;;;;;;16.35;3.98;;;;;;;7.84;69.56;99801.49;1717184;83;21769;-76
2022/02/18 10:53:19;;;;;;;26.40;5.12;;;;;;;7.90;68.95;99801.64;1716868;83;21122;-76
2022/02/18 10:56:00;;;;;;;20.15;5.55;;;;;;;7.87;68.69;99806.81;1716959;83;21133;-76
2022/02/18 10:58:29;;;;;;;18.07;4.53;;;;;;;7.86;68.51;99806.34;1716723;83;21815;-76
2022/02/18 11:01:14;;;;;;;15.23;3.55;;;;;;;7.82;68.11;99804.95;1716903;83;21086;-75
2022/02/18 11:03:48;;;;;;;20.12;4.70;;;;;;;7.85;68.05;99808.52;1716813;83;21087;-75
2022/02/18 11:06:19;;;;;;;17.40;4.53;;;;;;;7.83;67.99;99815.46;1717080;83;21173;-74
2022/02/18 11:08:52;;;;;;;18.37;4.75;;;;;;;7.86;68.00;99806.77;1717080;83;21121;-74
2022/02/18 11:11:19;;;;;;;19.20;4.50;;;;;;;7.95;68.25;99814.82;1716825;82;21781;-75
2022/02/18 11:13:45;;;;;;;16.90;4.10;;;;;;;8.04;68.09;99807.59;1721793;83;21074;-75
2022/02/18 11:16:18;;;;;;;22.25;5.08;;;;;;;8.02;67.54;99810.61;1722168;83;21062;-77
2022/02/18 11:18:45;;;;;;;21.75;4.53;;;;;;;7.92;67.24;99814.34;1722309;83;22351;-76
2022/02/18 11:21:14;;;;;;;19.37;4.70;;;;;;;7.85;67.04;99809.83;1722329;83;21055;-76
2022/02/18 11:23:43;;;;;;;16.73;4.22;;;;;;;7.86;67.27;99814.19;1722472;83;21756;-76
2022/02/18 11:26:17;;;;;;;12.55;3.80;;;;;;;7.89;67.49;99814.27;1722434;83;21105;-75
2022/02/18 11:28:44;;;;;;;16.25;4.20;;;;;;;7.99;67.49;99815.34;1722755;83;21556;-75
2022/02/18 11:31:25;;;;;;;13.93;4.58;;;;;;;8.08;67.51;99800.23;1722639;83;21094;-76
2022/02/18 11:34:29;;;;;;;18.77;3.98;;;;;;;8.15;67.41;99812.61;1710442;83;21070;-76
2022/02/18 11:37:30;;;;;;;14.13;4.37;;;;;;;8.31;67.11;99817.27;1722469;83;21798;-75
2022/02/18 11:40:24;;;;;;;15.90;4.53;;;;;;;8.46;66.95;99813.22;1721901;83;21086;-74